Airfield :
LOGIN :

Register | Disclaimer

   EN    FR    IT 

 










Legend :    VFR   Marginal VFR   IFR   Intensive IFR   Very Intensive IFR
Visi :
Ceiling :
>= 8 km
>= 3000ft
5 to 8 km
1000 to 3000 ft
1500m to 5 km
500 to 1000 ft
800 to 1500m
200 to 500 ft
< 800m
< 200 ft
Symbols :   Thunderstorms  Fog  Heavy snow  Heavy precipitations  Wind > 20 kt
SIGMETs :     Misc.  Thunderstorms  Icing  Turbulence  Mountain Waves  Volcanic Ashes







- Airport Elevation : 74 ft
- IATA code : NDZ


ETMN - Cuxhaven Nordholz Sea AB

CURRENT METAR :
  • 190837Z 16009KT 9999 -DZ SCT039 BKN060 03/01 Q1011 BLU BLU BECMG WHT

EXPIRED METARs :
  • 190820Z 16009KT 6000 -DZRA BKN039 03/01 Q1011 WHT WHT BECMG GRN
  • 190720Z 15010KT 9999 -RA FEW028 BKN060 04/M00 Q1010 BLU BLU BECMG WHT
  • 190620Z 15009KT 9999 BKN090 04/M00 Q1010 BLU BLU

TAF TAF ETMN
Valid from the 19 at 09:00 until the 19 at 18:00 UTC


190820Z 1909/1918 16010KT 6000 -RA SCT020 BKN025
BECMG 1909/1911 17010KT 8000 NSW BKN008
TEMPO 1911/1918 17008KT 4000 BR BKN006
No reported NOTAMs for that airfield.



MET'MAP, your aeronautical weather chart ! - Copyright ORBIFLY December 2007 - Disclaimer

ORBIFLY MET'MAP TEAM :

Programming & Development : Alexandra Zaïnal
Concept & Development : Baudouin d'Aumeries
Co-Development & Prog : Marc-Olivier Méhu
Technical & hardware support : Manuel Goepfert

Contact : metmap@orbifly.com




SOURCES & CREDITS :

   NOAA